createdAt,value
2022-09-27T00:02:34.838Z,100.00
2022-09-27T00:07:39.858Z,100.00
2022-09-27T00:12:43.480Z,100.00
2022-09-27T00:17:46.974Z,100.00
2022-09-27T00:22:51.858Z,100.00
2022-09-27T00:27:55.253Z,100.00
2022-09-27T00:32:58.962Z,100.00
2022-09-27T00:38:03.981Z,100.00
2022-09-27T00:43:16.866Z,100.00
2022-09-27T00:48:24.314Z,100.00
2022-09-27T00:53:34.947Z,100.00
2022-09-27T00:58:43.273Z,100.00
2022-09-27T01:03:53.591Z,100.00
2022-09-27T01:08:58.828Z,100.00
2022-09-27T01:14:21.375Z,100.00
2022-09-27T01:19:59.225Z,100.00
2022-09-27T01:25:19.587Z,100.00
2022-09-27T01:30:28.137Z,100.00
2022-09-27T01:35:38.225Z,100.00
2022-09-27T01:40:49.438Z,100.00
2022-09-27T01:46:21.571Z,100.00
2022-09-27T01:51:49.767Z,100.00
2022-09-27T01:56:58.573Z,100.00
2022-09-27T02:02:12.276Z,100.00
2022-09-27T02:07:45.471Z,100.00
2022-09-27T02:12:57.469Z,100.00
2022-09-27T02:18:06.526Z,100.00
2022-09-27T02:23:19.135Z,100.00
2022-09-27T02:28:29.778Z,100.00
2022-09-27T02:33:41.702Z,100.00
2022-09-27T02:38:46.414Z,100.00
2022-09-27T02:43:56.170Z,100.00
2022-09-27T02:49:20.523Z,100.00
2022-09-27T02:54:45.870Z,100.00
2022-09-27T03:00:13.374Z,100.00
2022-09-27T03:06:01.553Z,100.00
2022-09-27T03:11:05.261Z,100.00
2022-09-27T03:16:09.260Z,100.00
2022-09-27T03:21:36.029Z,100.00
2022-09-27T03:26:39.337Z,100.00
2022-09-27T03:31:43.161Z,100.00
2022-09-27T03:37:09.706Z,100.00
2022-09-27T03:42:13.201Z,100.00
2022-09-27T03:47:23.124Z,100.00
2022-09-27T03:52:28.039Z,100.00
2022-09-27T03:57:32.305Z,100.00
2022-09-27T04:02:39.646Z,100.00
2022-09-27T04:08:03.236Z,100.00
2022-09-27T04:13:09.345Z,100.00
2022-09-27T04:18:19.049Z,100.00
2022-09-27T04:23:59.986Z,100.00
2022-09-27T04:29:04.331Z,100.00
2022-09-27T04:34:10.564Z,100.00
2022-09-27T04:39:15.713Z,100.00
2022-09-27T04:44:21.171Z,100.00
2022-09-27T04:49:27.026Z,100.00
2022-09-27T04:54:32.297Z,100.00
2022-09-27T04:59:46.859Z,100.00
2022-09-27T05:04:51.048Z,100.00
2022-09-27T05:09:58.442Z,100.00
2022-09-27T05:15:03.141Z,100.00
2022-09-27T05:20:12.140Z,100.00
2022-09-27T05:25:37.273Z,100.00
2022-09-27T05:30:40.631Z,100.00
2022-09-27T05:35:56.051Z,100.00
2022-09-27T05:41:05.578Z,100.00
2022-09-27T05:46:09.635Z,100.00
2022-09-27T05:51:15.300Z,100.00
2022-09-27T05:56:21.444Z,100.00
2022-09-27T06:01:44.111Z,100.00
2022-09-27T06:07:13.279Z,100.00
2022-09-27T06:12:20.695Z,100.00
2022-09-27T06:17:29.663Z,100.00
2022-09-27T06:22:32.981Z,100.00
2022-09-27T06:27:38.799Z,100.00
2022-09-27T06:32:45.929Z,100.00
2022-09-27T06:38:07.418Z,100.00
2022-09-27T06:43:14.103Z,100.00
2022-09-27T06:48:45.547Z,100.00
2022-09-27T06:53:58.819Z,100.00
2022-09-27T06:59:22.546Z,100.00
2022-09-27T07:04:30.780Z,100.00
2022-09-27T07:09:34.448Z,100.00
2022-09-27T07:14:39.451Z,99.19
2022-09-27T07:19:43.591Z,82.82
2022-09-27T07:24:48.429Z,82.45
2022-09-27T07:29:54.239Z,94.59
2022-09-27T07:34:58.408Z,98.94
2022-09-27T07:40:02.859Z,98.24
2022-09-27T07:45:10.452Z,100.00
2022-09-27T07:50:44.738Z,98.99
2022-09-27T07:56:17.986Z,99.79
2022-09-27T08:01:29.651Z,96.75
2022-09-27T08:06:34.174Z,90.02
2022-09-27T08:11:38.619Z,84.27
2022-09-27T08:16:43.471Z,90.34
2022-09-27T08:21:49.808Z,86.84
2022-09-27T08:26:58.580Z,93.38
2022-09-27T08:32:23.244Z,91.00
2022-09-27T08:37:27.757Z,94.50
2022-09-27T08:42:40.329Z,92.75
2022-09-27T08:47:48.997Z,87.80
2022-09-27T08:52:59.276Z,91.79
2022-09-27T08:58:04.223Z,94.55
2022-09-27T09:03:19.106Z,91.22
2022-09-27T09:08:37.496Z,94.04
2022-09-27T09:14:02.321Z,92.11
2022-09-27T09:19:21.407Z,91.08
2022-09-27T09:24:48.381Z,90.71
2022-09-27T09:30:07.057Z,87.82
2022-09-27T09:35:26.771Z,92.50
2022-09-27T09:40:46.173Z,97.24
2022-09-27T09:45:56.918Z,94.69
2022-09-27T09:51:08.841Z,92.64
2022-09-27T09:56:17.016Z,90.09
2022-09-27T10:01:25.257Z,84.32
2022-09-27T10:06:32.259Z,87.41
2022-09-27T10:11:41.155Z,88.75
2022-09-27T10:17:12.664Z,91.09
2022-09-27T10:22:25.250Z,90.71
2022-09-27T10:27:30.307Z,92.20
2022-09-27T10:32:36.852Z,90.01
2022-09-27T10:38:24.633Z,83.07
2022-09-27T10:43:35.149Z,81.45
2022-09-27T10:49:12.938Z,82.69
2022-09-27T10:54:27.821Z,81.67
2022-09-27T10:59:35.573Z,85.29
2022-09-27T11:04:40.173Z,83.85
2022-09-27T11:09:55.441Z,81.44
2022-09-27T11:15:06.947Z,75.07
2022-09-27T11:20:26.262Z,80.24
2022-09-27T11:25:46.919Z,78.81
2022-09-27T11:31:00.143Z,79.87
2022-09-27T11:36:44.229Z,83.06
2022-09-27T11:42:03.803Z,87.09
2022-09-27T11:47:31.487Z,88.18
2022-09-27T11:52:49.839Z,87.64
2022-09-27T11:58:09.448Z,89.01
2022-09-27T12:03:40.635Z,89.35
2022-09-27T12:08:59.626Z,90.43
2022-09-27T12:14:22.445Z,90.73
2022-09-27T12:19:31.969Z,89.54
2022-09-27T12:24:40.489Z,92.34
2022-09-27T12:29:56.539Z,94.36
2022-09-27T12:35:06.905Z,93.11
2022-09-27T12:40:19.216Z,93.74
2022-09-27T12:45:40.154Z,95.91
2022-09-27T12:50:47.520Z,98.26
2022-09-27T12:56:18.069Z,100.00
2022-09-27T13:01:36.542Z,100.00
2022-09-27T13:06:57.314Z,100.00
2022-09-27T13:12:12.405Z,100.00
2022-09-27T13:17:49.091Z,100.00
2022-09-27T13:24:00.941Z,100.00
2022-09-27T13:29:37.416Z,100.00
2022-09-27T13:34:49.709Z,100.00
2022-09-27T13:40:13.776Z,100.00
2022-09-27T13:45:33.393Z,100.00
2022-09-27T13:50:48.261Z,100.00
2022-09-27T13:55:54.429Z,100.00
2022-09-27T14:01:31.118Z,100.00
2022-09-27T14:06:42.929Z,100.00
2022-09-27T14:11:53.554Z,100.00
2022-09-27T14:17:00.510Z,100.00
2022-09-27T14:22:05.803Z,100.00
2022-09-27T14:27:18.475Z,100.00
2022-09-27T14:32:28.656Z,100.00
2022-09-27T14:37:40.276Z,100.00
2022-09-27T14:43:35.086Z,100.00
2022-09-27T14:48:41.038Z,100.00
2022-09-27T14:53:59.017Z,100.00
2022-09-27T14:59:06.556Z,100.00
2022-09-27T15:04:19.890Z,100.00
2022-09-27T15:09:32.910Z,100.00
2022-09-27T15:14:49.422Z,100.00
2022-09-27T15:20:23.479Z,100.00
2022-09-27T15:25:44.429Z,100.00
2022-09-27T15:31:14.126Z,100.00
2022-09-27T15:36:19.222Z,100.00
2022-09-27T15:41:34.940Z,100.00
2022-09-27T15:47:06.818Z,100.00
2022-09-27T15:52:41.656Z,100.00
2022-09-27T15:57:50.517Z,100.00
2022-09-27T16:02:54.799Z,100.00
2022-09-27T16:07:59.394Z,100.00
2022-09-27T16:13:04.330Z,100.00
2022-09-27T16:18:07.876Z,100.00
2022-09-27T16:23:12.065Z,100.00
2022-09-27T16:28:19.766Z,100.00
2022-09-27T16:33:23.520Z,100.00
2022-09-27T16:38:27.328Z,100.00
2022-09-27T16:43:32.555Z,100.00
2022-09-27T16:48:36.120Z,100.00
2022-09-27T16:53:39.786Z,100.00
2022-09-27T16:58:44.978Z,100.00
2022-09-27T17:04:06.454Z,100.00
2022-09-27T17:09:17.012Z,100.00
2022-09-27T17:14:27.443Z,100.00
2022-09-27T17:19:39.281Z,100.00
2022-09-27T17:24:42.856Z,100.00
2022-09-27T17:29:48.028Z,100.00
2022-09-27T17:34:51.776Z,100.00
2022-09-27T17:39:55.634Z,100.00
2022-09-27T17:45:00.467Z,100.00
2022-09-27T17:50:26.930Z,100.00
2022-09-27T17:55:30.482Z,100.00
2022-09-27T18:00:35.655Z,100.00
2022-09-27T18:05:39.539Z,100.00
2022-09-27T18:10:43.791Z,100.00
2022-09-27T18:15:59.479Z,100.00
2022-09-27T18:21:04.105Z,100.00
2022-09-27T18:26:13.401Z,100.00
2022-09-27T18:31:20.539Z,100.00
2022-09-27T18:36:26.230Z,100.00
2022-09-27T18:41:31.217Z,100.00
2022-09-27T18:46:37.710Z,100.00
2022-09-27T18:51:54.579Z,100.00
2022-09-27T18:57:09.522Z,100.00
2022-09-27T19:02:22.637Z,100.00
2022-09-27T19:07:27.411Z,100.00
2022-09-27T19:12:31.008Z,100.00
2022-09-27T19:17:35.946Z,100.00
2022-09-27T19:23:00.985Z,100.00
2022-09-27T19:28:08.136Z,100.00
2022-09-27T19:33:13.028Z,100.00
2022-09-27T19:38:16.478Z,100.00
2022-09-27T19:43:20.018Z,100.00
2022-09-27T19:48:24.814Z,100.00
2022-09-27T19:53:32.044Z,100.00
2022-09-27T19:58:37.792Z,100.00
2022-09-27T20:03:45.212Z,100.00
2022-09-27T20:08:48.944Z,100.00
2022-09-27T20:13:54.355Z,100.00
2022-09-27T20:19:00.510Z,100.00
2022-09-27T20:24:06.099Z,100.00
2022-09-27T20:29:10.406Z,100.00
2022-09-27T20:34:16.193Z,100.00
2022-09-27T20:39:22.258Z,100.00
2022-09-27T20:44:26.274Z,100.00
2022-09-27T20:49:30.966Z,100.00
2022-09-27T20:54:35.055Z,100.00
2022-09-27T20:59:38.312Z,100.00
2022-09-27T21:04:43.012Z,100.00
2022-09-27T21:09:46.353Z,100.00
2022-09-27T21:14:49.693Z,100.00
2022-09-27T21:20:10.836Z,100.00
2022-09-27T21:25:14.207Z,100.00
2022-09-27T21:30:17.849Z,100.00
2022-09-27T21:35:22.746Z,100.00
2022-09-27T21:40:36.323Z,100.00
2022-09-27T21:45:39.729Z,100.00
2022-09-27T21:50:44.475Z,100.00
2022-09-27T21:55:55.447Z,100.00
2022-09-27T22:00:59.427Z,100.00
2022-09-27T22:06:05.828Z,100.00
2022-09-27T22:11:10.194Z,100.00
2022-09-27T22:16:15.793Z,100.00
2022-09-27T22:21:22.820Z,100.00
2022-09-27T22:26:28.144Z,100.00
2022-09-27T22:31:32.005Z,100.00
2022-09-27T22:36:37.692Z,100.00
2022-09-27T22:41:41.110Z,100.00
2022-09-27T22:46:46.095Z,100.00
2022-09-27T22:51:51.563Z,100.00
2022-09-27T22:56:57.402Z,100.00
2022-09-27T23:02:00.840Z,100.00
2022-09-27T23:07:05.657Z,100.00
2022-09-27T23:12:14.791Z,100.00
2022-09-27T23:17:20.372Z,100.00
2022-09-27T23:22:25.228Z,100.00
2022-09-27T23:27:45.302Z,100.00
2022-09-27T23:32:54.364Z,100.00
2022-09-27T23:37:59.342Z,100.00
2022-09-27T23:43:02.731Z,100.00
2022-09-27T23:48:06.267Z,100.00
2022-09-27T23:53:10.970Z,100.00
2022-09-27T23:58:14.347Z,100.00
